sensor_id;sensor_type;location;lat;lon;timestamp;P1;durP1;ratioP1;P2;durP2;ratioP2
60588;SDS011;46421;48.610;9.334;2023-04-06T00:00:32;11.25;;;4.38;;
60588;SDS011;46421;48.610;9.334;2023-04-06T00:02:58;8.30;;;3.75;;
60588;SDS011;46421;48.610;9.334;2023-04-06T00:05:23;8.82;;;3.75;;
60588;SDS011;46421;48.610;9.334;2023-04-06T00:07:49;8.50;;;3.85;;
60588;SDS011;46421;48.610;9.334;2023-04-06T00:10:15;11.10;;;3.38;;
60588;SDS011;46421;48.610;9.334;2023-04-06T00:12:41;11.73;;;4.38;;
60588;SDS011;46421;48.610;9.334;2023-04-06T00:15:07;9.80;;;4.55;;
60588;SDS011;46421;48.610;9.334;2023-04-06T00:17:32;11.05;;;4.53;;
60588;SDS011;46421;48.610;9.334;2023-04-06T00:19:58;8.27;;;3.50;;
60588;SDS011;46421;48.610;9.334;2023-04-06T00:22:23;8.60;;;3.78;;
60588;SDS011;46421;48.610;9.334;2023-04-06T00:24:49;7.90;;;3.90;;
60588;SDS011;46421;48.610;9.334;2023-04-06T00:27:14;7.18;;;3.67;;
60588;SDS011;46421;48.610;9.334;2023-04-06T00:29:40;8.40;;;4.00;;
60588;SDS011;46421;48.610;9.334;2023-04-06T00:32:05;7.40;;;3.53;;
60588;SDS011;46421;48.610;9.334;2023-04-06T00:34:30;7.82;;;3.65;;
60588;SDS011;46421;48.610;9.334;2023-04-06T00:36:56;7.27;;;3.53;;
60588;SDS011;46421;48.610;9.334;2023-04-06T00:39:21;7.43;;;3.75;;
60588;SDS011;46421;48.610;9.334;2023-04-06T00:41:49;9.27;;;3.80;;
60588;SDS011;46421;48.610;9.334;2023-04-06T00:44:16;11.00;;;3.83;;
60588;SDS011;46421;48.610;9.334;2023-04-06T00:46:41;8.13;;;3.83;;
60588;SDS011;46421;48.610;9.334;2023-04-06T00:49:07;8.25;;;3.30;;
60588;SDS011;46421;48.610;9.334;2023-04-06T00:51:32;6.75;;;3.58;;
60588;SDS011;46421;48.610;9.334;2023-04-06T00:53:58;10.30;;;4.00;;
60588;SDS011;46421;48.610;9.334;2023-04-06T00:56:23;10.20;;;4.30;;
60588;SDS011;46421;48.610;9.334;2023-04-06T00:58:49;7.68;;;3.20;;
60588;SDS011;46421;48.610;9.334;2023-04-06T01:01:14;7.68;;;3.45;;
60588;SDS011;46421;48.610;9.334;2023-04-06T01:03:40;8.88;;;3.25;;
60588;SDS011;46421;48.610;9.334;2023-04-06T01:06:07;8.13;;;3.75;;
60588;SDS011;46421;48.610;9.334;2023-04-06T01:08:32;9.05;;;3.95;;
60588;SDS011;46421;48.610;9.334;2023-04-06T01:10:59;9.13;;;3.72;;
60588;SDS011;46421;48.610;9.334;2023-04-06T01:13:26;9.02;;;3.55;;
60588;SDS011;46421;48.610;9.334;2023-04-06T01:15:52;8.50;;;3.50;;
60588;SDS011;46421;48.610;9.334;2023-04-06T01:18:18;7.30;;;3.35;;
60588;SDS011;46421;48.610;9.334;2023-04-06T01:20:43;8.55;;;3.80;;
60588;SDS011;46421;48.610;9.334;2023-04-06T01:23:08;7.10;;;3.28;;
60588;SDS011;46421;48.610;9.334;2023-04-06T01:25:34;8.55;;;3.50;;
60588;SDS011;46421;48.610;9.334;2023-04-06T01:28:00;7.93;;;3.38;;
60588;SDS011;46421;48.610;9.334;2023-04-06T01:30:25;8.77;;;3.60;;
60588;SDS011;46421;48.610;9.334;2023-04-06T01:32:51;8.00;;;3.40;;
60588;SDS011;46421;48.610;9.334;2023-04-06T01:35:17;8.75;;;3.78;;
60588;SDS011;46421;48.610;9.334;2023-04-06T01:37:44;8.55;;;3.83;;
60588;SDS011;46421;48.610;9.334;2023-04-06T01:40:09;7.40;;;3.58;;
60588;SDS011;46421;48.610;9.334;2023-04-06T01:42:36;8.77;;;3.20;;
60588;SDS011;46421;48.610;9.334;2023-04-06T01:45:02;7.70;;;3.30;;
60588;SDS011;46421;48.610;9.334;2023-04-06T01:47:27;8.98;;;3.78;;
60588;SDS011;46421;48.610;9.334;2023-04-06T01:49:53;7.90;;;3.63;;
60588;SDS011;46421;48.610;9.334;2023-04-06T01:52:18;8.27;;;3.60;;
60588;SDS011;46421;48.610;9.334;2023-04-06T01:54:44;11.07;;;3.50;;
60588;SDS011;46421;48.610;9.334;2023-04-06T01:57:10;6.25;;;3.05;;
60588;SDS011;46421;48.610;9.334;2023-04-06T01:59:36;7.65;;;3.38;;
60588;SDS011;46421;48.610;9.334;2023-04-06T02:02:01;5.80;;;3.13;;
60588;SDS011;46421;48.610;9.334;2023-04-06T02:04:26;9.38;;;3.25;;
60588;SDS011;46421;48.610;9.334;2023-04-06T02:06:52;9.55;;;4.20;;
60588;SDS011;46421;48.610;9.334;2023-04-06T02:09:17;7.90;;;3.40;;
60588;SDS011;46421;48.610;9.334;2023-04-06T02:11:42;8.70;;;3.93;;
60588;SDS011;46421;48.610;9.334;2023-04-06T02:14:08;11.90;;;3.27;;
60588;SDS011;46421;48.610;9.334;2023-04-06T02:16:33;8.52;;;3.10;;
60588;SDS011;46421;48.610;9.334;2023-04-06T02:18:59;10.02;;;3.80;;
60588;SDS011;46421;48.610;9.334;2023-04-06T02:21:24;6.30;;;2.93;;
60588;SDS011;46421;48.610;9.334;2023-04-06T02:23:49;9.90;;;3.97;;
60588;SDS011;46421;48.610;9.334;2023-04-06T02:26:15;10.80;;;3.65;;
60588;SDS011;46421;48.610;9.334;2023-04-06T02:28:40;8.47;;;4.00;;
60588;SDS011;46421;48.610;9.334;2023-04-06T02:31:06;6.97;;;3.22;;
60588;SDS011;46421;48.610;9.334;2023-04-06T02:33:31;6.72;;;3.17;;
60588;SDS011;46421;48.610;9.334;2023-04-06T02:35:57;6.87;;;3.40;;
60588;SDS011;46421;48.610;9.334;2023-04-06T02:38:22;8.33;;;3.60;;
60588;SDS011;46421;48.610;9.334;2023-04-06T02:40:47;7.82;;;2.92;;
60588;SDS011;46421;48.610;9.334;2023-04-06T02:43:13;7.47;;;3.07;;
60588;SDS011;46421;48.610;9.334;2023-04-06T02:45:38;7.05;;;3.55;;
60588;SDS011;46421;48.610;9.334;2023-04-06T02:48:04;7.20;;;3.70;;
60588;SDS011;46421;48.610;9.334;2023-04-06T02:50:30;8.30;;;3.38;;
60588;SDS011;46421;48.610;9.334;2023-04-06T02:52:55;9.23;;;3.78;;
60588;SDS011;46421;48.610;9.334;2023-04-06T02:55:20;10.43;;;3.73;;
60588;SDS011;46421;48.610;9.334;2023-04-06T02:57:46;7.22;;;3.63;;
60588;SDS011;46421;48.610;9.334;2023-04-06T03:00:11;8.37;;;3.77;;
60588;SDS011;46421;48.610;9.334;2023-04-06T03:02:37;6.53;;;3.40;;
60588;SDS011;46421;48.610;9.334;2023-04-06T03:05:03;7.93;;;3.30;;
60588;SDS011;46421;48.610;9.334;2023-04-06T03:07:28;6.50;;;3.08;;
60588;SDS011;46421;48.610;9.334;2023-04-06T03:09:54;9.68;;;3.63;;
60588;SDS011;46421;48.610;9.334;2023-04-06T03:12:19;7.32;;;3.47;;
60588;SDS011;46421;48.610;9.334;2023-04-06T03:14:45;8.80;;;3.42;;
60588;SDS011;46421;48.610;9.334;2023-04-06T03:17:10;8.63;;;3.30;;
60588;SDS011;46421;48.610;9.334;2023-04-06T03:19:36;8.10;;;3.33;;
60588;SDS011;46421;48.610;9.334;2023-04-06T03:22:01;10.13;;;3.80;;
60588;SDS011;46421;48.610;9.334;2023-04-06T03:24:26;10.10;;;3.63;;
60588;SDS011;46421;48.610;9.334;2023-04-06T03:26:52;7.72;;;3.30;;
60588;SDS011;46421;48.610;9.334;2023-04-06T03:29:17;6.07;;;3.00;;
60588;SDS011;46421;48.610;9.334;2023-04-06T03:31:43;6.50;;;2.83;;
60588;SDS011;46421;48.610;9.334;2023-04-06T03:34:08;7.72;;;3.42;;
60588;SDS011;46421;48.610;9.334;2023-04-06T03:36:34;8.77;;;3.53;;
60588;SDS011;46421;48.610;9.334;2023-04-06T03:39:00;6.85;;;3.08;;
60588;SDS011;46421;48.610;9.334;2023-04-06T03:41:25;7.18;;;2.90;;
60588;SDS011;46421;48.610;9.334;2023-04-06T03:43:51;6.82;;;2.78;;
60588;SDS011;46421;48.610;9.334;2023-04-06T03:46:17;7.35;;;2.80;;
60588;SDS011;46421;48.610;9.334;2023-04-06T03:48:42;7.47;;;2.73;;
60588;SDS011;46421;48.610;9.334;2023-04-06T03:51:08;7.32;;;3.40;;
60588;SDS011;46421;48.610;9.334;2023-04-06T03:53:33;8.20;;;3.67;;
60588;SDS011;46421;48.610;9.334;2023-04-06T03:55:59;9.65;;;3.80;;
60588;SDS011;46421;48.610;9.334;2023-04-06T03:58:24;9.30;;;3.90;;
60588;SDS011;46421;48.610;9.334;2023-04-06T04:00:50;6.65;;;3.08;;
60588;SDS011;46421;48.610;9.334;2023-04-06T04:03:15;6.93;;;2.80;;
60588;SDS011;46421;48.610;9.334;2023-04-06T04:05:40;10.02;;;3.40;;
60588;SDS011;46421;48.610;9.334;2023-04-06T04:08:07;6.53;;;3.47;;
60588;SDS011;46421;48.610;9.334;2023-04-06T04:10:33;11.73;;;3.47;;
60588;SDS011;46421;48.610;9.334;2023-04-06T04:12:58;8.60;;;3.80;;
60588;SDS011;46421;48.610;9.334;2023-04-06T04:15:24;8.25;;;3.30;;
60588;SDS011;46421;48.610;9.334;2023-04-06T04:17:49;9.50;;;3.87;;
60588;SDS011;46421;48.610;9.334;2023-04-06T04:20:15;9.13;;;3.20;;
60588;SDS011;46421;48.610;9.334;2023-04-06T04:22:41;9.13;;;3.70;;
60588;SDS011;46421;48.610;9.334;2023-04-06T04:25:06;7.25;;;3.50;;
60588;SDS011;46421;48.610;9.334;2023-04-06T04:27:32;5.60;;;3.05;;
60588;SDS011;46421;48.610;9.334;2023-04-06T04:29:57;9.57;;;3.57;;
60588;SDS011;46421;48.610;9.334;2023-04-06T04:32:23;9.52;;;3.90;;
60588;SDS011;46421;48.610;9.334;2023-04-06T04:34:52;9.68;;;3.50;;
60588;SDS011;46421;48.610;9.334;2023-04-06T04:37:17;10.13;;;4.10;;
60588;SDS011;46421;48.610;9.334;2023-04-06T04:39:43;9.47;;;3.60;;
60588;SDS011;46421;48.610;9.334;2023-04-06T04:42:08;7.37;;;3.07;;
60588;SDS011;46421;48.610;9.334;2023-04-06T04:44:33;8.07;;;3.30;;
60588;SDS011;46421;48.610;9.334;2023-04-06T04:46:59;8.40;;;4.00;;
60588;SDS011;46421;48.610;9.334;2023-04-06T04:49:24;7.45;;;3.03;;
60588;SDS011;46421;48.610;9.334;2023-04-06T04:51:50;10.50;;;3.65;;
60588;SDS011;46421;48.610;9.334;2023-04-06T04:54:17;9.93;;;4.30;;
60588;SDS011;46421;48.610;9.334;2023-04-06T04:56:43;9.32;;;3.83;;
60588;SDS011;46421;48.610;9.334;2023-04-06T04:59:08;8.03;;;3.70;;
60588;SDS011;46421;48.610;9.334;2023-04-06T05:01:33;8.75;;;3.10;;
60588;SDS011;46421;48.610;9.334;2023-04-06T05:03:59;9.48;;;3.78;;
60588;SDS011;46421;48.610;9.334;2023-04-06T05:06:24;8.25;;;3.28;;
60588;SDS011;46421;48.610;9.334;2023-04-06T05:08:50;9.35;;;3.90;;
60588;SDS011;46421;48.610;9.334;2023-04-06T05:11:15;7.83;;;3.60;;
60588;SDS011;46421;48.610;9.334;2023-04-06T05:13:41;7.78;;;3.78;;
60588;SDS011;46421;48.610;9.334;2023-04-06T05:16:07;10.15;;;2.92;;
60588;SDS011;46421;48.610;9.334;2023-04-06T05:18:32;8.40;;;3.88;;
60588;SDS011;46421;48.610;9.334;2023-04-06T05:20:58;11.07;;;4.10;;
60588;SDS011;46421;48.610;9.334;2023-04-06T05:23:23;7.25;;;3.50;;
60588;SDS011;46421;48.610;9.334;2023-04-06T05:25:48;7.27;;;3.53;;
60588;SDS011;46421;48.610;9.334;2023-04-06T05:28:14;11.25;;;4.03;;
60588;SDS011;46421;48.610;9.334;2023-04-06T05:30:41;8.27;;;3.75;;
60588;SDS011;46421;48.610;9.334;2023-04-06T05:33:07;6.55;;;3.05;;
60588;SDS011;46421;48.610;9.334;2023-04-06T05:35:32;9.43;;;3.75;;
60588;SDS011;46421;48.610;9.334;2023-04-06T05:37:58;10.35;;;4.15;;
60588;SDS011;46421;48.610;9.334;2023-04-06T05:40:24;9.70;;;3.92;;
60588;SDS011;46421;48.610;9.334;2023-04-06T05:42:49;8.05;;;3.88;;
60588;SDS011;46421;48.610;9.334;2023-04-06T05:45:15;12.52;;;5.05;;
60588;SDS011;46421;48.610;9.334;2023-04-06T05:47:41;11.30;;;4.28;;
60588;SDS011;46421;48.610;9.334;2023-04-06T05:50:08;11.15;;;4.55;;
60588;SDS011;46421;48.610;9.334;2023-04-06T05:52:34;11.88;;;4.75;;
60588;SDS011;46421;48.610;9.334;2023-04-06T05:55:00;9.70;;;4.45;;
60588;SDS011;46421;48.610;9.334;2023-04-06T05:57:25;11.48;;;4.47;;
60588;SDS011;46421;48.610;9.334;2023-04-06T05:59:51;8.57;;;4.45;;
60588;SDS011;46421;48.610;9.334;2023-04-06T06:02:16;8.82;;;4.45;;
60588;SDS011;46421;48.610;9.334;2023-04-06T06:04:41;10.93;;;4.23;;
60588;SDS011;46421;48.610;9.334;2023-04-06T06:07:07;10.95;;;4.88;;
60588;SDS011;46421;48.610;9.334;2023-04-06T06:09:32;8.43;;;3.87;;
60588;SDS011;46421;48.610;9.334;2023-04-06T06:11:57;8.17;;;4.23;;
60588;SDS011;46421;48.610;9.334;2023-04-06T06:14:23;9.38;;;4.60;;
60588;SDS011;46421;48.610;9.334;2023-04-06T06:16:48;8.73;;;4.40;;
60588;SDS011;46421;48.610;9.334;2023-04-06T06:19:14;10.05;;;4.60;;
60588;SDS011;46421;48.610;9.334;2023-04-06T06:21:39;11.80;;;5.10;;
60588;SDS011;46421;48.610;9.334;2023-04-06T06:24:05;11.23;;;4.68;;
60588;SDS011;46421;48.610;9.334;2023-04-06T06:26:31;10.38;;;4.93;;
60588;SDS011;46421;48.610;9.334;2023-04-06T06:28:56;11.02;;;4.70;;
60588;SDS011;46421;48.610;9.334;2023-04-06T06:31:22;11.93;;;5.20;;
60588;SDS011;46421;48.610;9.334;2023-04-06T06:33:47;8.55;;;4.72;;
60588;SDS011;46421;48.610;9.334;2023-04-06T06:36:15;9.75;;;4.35;;
60588;SDS011;46421;48.610;9.334;2023-04-06T06:38:42;13.95;;;5.47;;
60588;SDS011;46421;48.610;9.334;2023-04-06T06:41:07;9.07;;;4.97;;
60588;SDS011;46421;48.610;9.334;2023-04-06T06:43:32;10.35;;;5.63;;
60588;SDS011;46421;48.610;9.334;2023-04-06T06:45:58;12.52;;;5.13;;
60588;SDS011;46421;48.610;9.334;2023-04-06T06:48:23;12.05;;;5.43;;
60588;SDS011;46421;48.610;9.334;2023-04-06T06:50:49;9.80;;;4.80;;
60588;SDS011;46421;48.610;9.334;2023-04-06T06:53:14;10.23;;;4.95;;
60588;SDS011;46421;48.610;9.334;2023-04-06T06:55:40;9.75;;;5.13;;
60588;SDS011;46421;48.610;9.334;2023-04-06T06:58:05;11.73;;;5.32;;
60588;SDS011;46421;48.610;9.334;2023-04-06T07:00:31;9.75;;;4.72;;
60588;SDS011;46421;48.610;9.334;2023-04-06T07:02:59;9.68;;;4.80;;
60588;SDS011;46421;48.610;9.334;2023-04-06T07:05:25;9.20;;;4.47;;
60588;SDS011;46421;48.610;9.334;2023-04-06T07:07:51;8.98;;;5.05;;
60588;SDS011;46421;48.610;9.334;2023-04-06T07:10:16;9.43;;;5.20;;
60588;SDS011;46421;48.610;9.334;2023-04-06T07:12:41;9.73;;;4.90;;
60588;SDS011;46421;48.610;9.334;2023-04-06T07:15:07;9.83;;;5.20;;
60588;SDS011;46421;48.610;9.334;2023-04-06T07:17:32;10.18;;;4.68;;
60588;SDS011;46421;48.610;9.334;2023-04-06T07:19:58;11.73;;;5.25;;
60588;SDS011;46421;48.610;9.334;2023-04-06T07:22:23;9.80;;;5.28;;
60588;SDS011;46421;48.610;9.334;2023-04-06T07:24:49;9.20;;;4.95;;
60588;SDS011;46421;48.610;9.334;2023-04-06T07:27:15;8.70;;;4.97;;
60588;SDS011;46421;48.610;9.334;2023-04-06T07:29:41;9.55;;;4.90;;
60588;SDS011;46421;48.610;9.334;2023-04-06T07:32:06;10.00;;;5.00;;
60588;SDS011;46421;48.610;9.334;2023-04-06T07:34:32;13.27;;;5.57;;
60588;SDS011;46421;48.610;9.334;2023-04-06T07:36:57;11.23;;;5.25;;
60588;SDS011;46421;48.610;9.334;2023-04-06T07:39:23;10.38;;;5.15;;
60588;SDS011;46421;48.610;9.334;2023-04-06T07:41:48;11.93;;;5.22;;
60588;SDS011;46421;48.610;9.334;2023-04-06T07:44:14;9.55;;;4.95;;
60588;SDS011;46421;48.610;9.334;2023-04-06T07:46:39;12.60;;;4.68;;
60588;SDS011;46421;48.610;9.334;2023-04-06T07:49:05;11.55;;;4.93;;
60588;SDS011;46421;48.610;9.334;2023-04-06T07:51:30;9.20;;;4.90;;
60588;SDS011;46421;48.610;9.334;2023-04-06T07:53:56;10.10;;;4.53;;
60588;SDS011;46421;48.610;9.334;2023-04-06T07:56:21;9.18;;;4.82;;
60588;SDS011;46421;48.610;9.334;2023-04-06T07:58:47;9.68;;;4.43;;
60588;SDS011;46421;48.610;9.334;2023-04-06T08:01:12;12.38;;;5.18;;
60588;SDS011;46421;48.610;9.334;2023-04-06T08:03:39;9.15;;;4.82;;
60588;SDS011;46421;48.610;9.334;2023-04-06T08:06:04;10.00;;;5.30;;
60588;SDS011;46421;48.610;9.334;2023-04-06T08:08:30;9.32;;;4.78;;
60588;SDS011;46421;48.610;9.334;2023-04-06T08:10:55;11.15;;;5.05;;
60588;SDS011;46421;48.610;9.334;2023-04-06T08:13:21;7.70;;;4.40;;
60588;SDS011;46421;48.610;9.334;2023-04-06T08:15:46;11.85;;;6.45;;
60588;SDS011;46421;48.610;9.334;2023-04-06T08:18:12;9.10;;;5.82;;
60588;SDS011;46421;48.610;9.334;2023-04-06T08:20:37;10.20;;;5.10;;
60588;SDS011;46421;48.610;9.334;2023-04-06T08:23:03;10.27;;;6.22;;
60588;SDS011;46421;48.610;9.334;2023-04-06T08:25:29;12.98;;;6.40;;
60588;SDS011;46421;48.610;9.334;2023-04-06T08:27:54;12.32;;;5.95;;
60588;SDS011;46421;48.610;9.334;2023-04-06T08:30:20;11.27;;;5.45;;
60588;SDS011;46421;48.610;9.334;2023-04-06T08:32:46;12.13;;;5.97;;
60588;SDS011;46421;48.610;9.334;2023-04-06T08:35:12;12.30;;;6.82;;
60588;SDS011;46421;48.610;9.334;2023-04-06T08:37:37;10.85;;;6.20;;
60588;SDS011;46421;48.610;9.334;2023-04-06T08:40:03;12.98;;;6.28;;
60588;SDS011;46421;48.610;9.334;2023-04-06T08:42:32;13.95;;;6.20;;
60588;SDS011;46421;48.610;9.334;2023-04-06T08:44:59;15.63;;;7.28;;
60588;SDS011;46421;48.610;9.334;2023-04-06T08:47:26;9.65;;;5.65;;
60588;SDS011;46421;48.610;9.334;2023-04-06T08:49:53;14.18;;;6.32;;
60588;SDS011;46421;48.610;9.334;2023-04-06T08:52:19;13.52;;;6.35;;
60588;SDS011;46421;48.610;9.334;2023-04-06T08:54:44;10.45;;;5.72;;
60588;SDS011;46421;48.610;9.334;2023-04-06T08:57:10;9.05;;;5.30;;
60588;SDS011;46421;48.610;9.334;2023-04-06T08:59:36;9.95;;;5.68;;
60588;SDS011;46421;48.610;9.334;2023-04-06T09:02:03;9.40;;;5.80;;
60588;SDS011;46421;48.610;9.334;2023-04-06T09:04:30;10.80;;;6.00;;
60588;SDS011;46421;48.610;9.334;2023-04-06T09:06:57;10.60;;;5.90;;
60588;SDS011;46421;48.610;9.334;2023-04-06T09:09:23;11.10;;;5.53;;
60588;SDS011;46421;48.610;9.334;2023-04-06T09:11:50;11.00;;;6.07;;
60588;SDS011;46421;48.610;9.334;2023-04-06T09:14:17;9.98;;;5.70;;
60588;SDS011;46421;48.610;9.334;2023-04-06T09:16:57;9.45;;;5.63;;
60588;SDS011;46421;48.610;9.334;2023-04-06T09:19:23;11.63;;;5.60;;
60588;SDS011;46421;48.610;9.334;2023-04-06T09:21:48;10.07;;;5.95;;
60588;SDS011;46421;48.610;9.334;2023-04-06T09:24:13;10.13;;;6.07;;
60588;SDS011;46421;48.610;9.334;2023-04-06T09:26:45;10.93;;;5.60;;
60588;SDS011;46421;48.610;9.334;2023-04-06T09:29:21;9.63;;;5.05;;
60588;SDS011;46421;48.610;9.334;2023-04-06T09:31:47;11.38;;;5.72;;
60588;SDS011;46421;48.610;9.334;2023-04-06T09:34:20;10.57;;;6.22;;
60588;SDS011;46421;48.610;9.334;2023-04-06T09:36:46;11.27;;;6.43;;
60588;SDS011;46421;48.610;9.334;2023-04-06T09:39:12;9.50;;;5.20;;
60588;SDS011;46421;48.610;9.334;2023-04-06T09:41:37;11.00;;;4.97;;
60588;SDS011;46421;48.610;9.334;2023-04-06T09:46:34;10.25;;;5.32;;
60588;SDS011;46421;48.610;9.334;2023-04-06T09:49:01;11.00;;;5.55;;
60588;SDS011;46421;48.610;9.334;2023-04-06T09:51:30;9.45;;;5.63;;
60588;SDS011;46421;48.610;9.334;2023-04-06T09:56:28;9.48;;;5.00;;
60588;SDS011;46421;48.610;9.334;2023-04-06T09:59:00;11.60;;;5.57;;
60588;SDS011;46421;48.610;9.334;2023-04-06T10:01:28;12.65;;;6.40;;
60588;SDS011;46421;48.610;9.334;2023-04-06T10:03:56;9.73;;;5.78;;
60588;SDS011;46421;48.610;9.334;2023-04-06T10:06:38;10.30;;;5.95;;
60588;SDS011;46421;48.610;9.334;2023-04-06T10:09:04;10.30;;;5.32;;
60588;SDS011;46421;48.610;9.334;2023-04-06T10:11:33;9.35;;;5.72;;
60588;SDS011;46421;48.610;9.334;2023-04-06T10:16:25;8.48;;;5.25;;
60588;SDS011;46421;48.610;9.334;2023-04-06T10:18:54;7.95;;;4.68;;
60588;SDS011;46421;48.610;9.334;2023-04-06T10:21:24;10.65;;;5.63;;
60588;SDS011;46421;48.610;9.334;2023-04-06T10:23:52;9.65;;;5.38;;
60588;SDS011;46421;48.610;9.334;2023-04-06T10:26:24;10.30;;;5.32;;
60588;SDS011;46421;48.610;9.334;2023-04-06T10:28:50;9.10;;;5.05;;
60588;SDS011;46421;48.610;9.334;2023-04-06T10:31:23;8.70;;;5.00;;
60588;SDS011;46421;48.610;9.334;2023-04-06T10:36:23;9.93;;;4.78;;
60588;SDS011;46421;48.610;9.334;2023-04-06T10:38:57;9.75;;;5.38;;
60588;SDS011;46421;48.610;9.334;2023-04-06T10:41:33;9.57;;;5.03;;
60588;SDS011;46421;48.610;9.334;2023-04-06T10:44:05;9.20;;;5.70;;
60588;SDS011;46421;48.610;9.334;2023-04-06T10:46:31;9.13;;;4.75;;
60588;SDS011;46421;48.610;9.334;2023-04-06T10:48:58;9.55;;;5.00;;
60588;SDS011;46421;48.610;9.334;2023-04-06T10:51:37;8.25;;;5.00;;
60588;SDS011;46421;48.610;9.334;2023-04-06T10:54:03;7.53;;;4.82;;
60588;SDS011;46421;48.610;9.334;2023-04-06T10:56:30;8.82;;;5.22;;
60588;SDS011;46421;48.610;9.334;2023-04-06T10:58:59;9.23;;;4.85;;
60588;SDS011;46421;48.610;9.334;2023-04-06T11:01:24;9.25;;;5.10;;
60588;SDS011;46421;48.610;9.334;2023-04-06T11:03:53;8.48;;;4.80;;
60588;SDS011;46421;48.610;9.334;2023-04-06T11:06:21;9.50;;;6.13;;
60588;SDS011;46421;48.610;9.334;2023-04-06T11:08:48;7.82;;;4.68;;
60588;SDS011;46421;48.610;9.334;2023-04-06T11:11:15;11.43;;;5.57;;
60588;SDS011;46421;48.610;9.334;2023-04-06T11:16:12;8.05;;;5.15;;
60588;SDS011;46421;48.610;9.334;2023-04-06T11:21:31;9.20;;;4.63;;
60588;SDS011;46421;48.610;9.334;2023-04-06T11:24:11;9.30;;;4.85;;
60588;SDS011;46421;48.610;9.334;2023-04-06T11:26:38;10.15;;;5.00;;
60588;SDS011;46421;48.610;9.334;2023-04-06T11:29:06;8.90;;;4.97;;
60588;SDS011;46421;48.610;9.334;2023-04-06T11:31:36;8.35;;;5.22;;
60588;SDS011;46421;48.610;9.334;2023-04-06T11:34:08;7.80;;;4.50;;
60588;SDS011;46421;48.610;9.334;2023-04-06T11:36:39;8.63;;;4.68;;
60588;SDS011;46421;48.610;9.334;2023-04-06T11:39:06;9.10;;;4.78;;
60588;SDS011;46421;48.610;9.334;2023-04-06T11:41:32;8.10;;;5.18;;
60588;SDS011;46421;48.610;9.334;2023-04-06T11:43:57;7.82;;;4.22;;
60588;SDS011;46421;48.610;9.334;2023-04-06T11:46:26;8.93;;;4.70;;
60588;SDS011;46421;48.610;9.334;2023-04-06T11:48:51;9.13;;;5.18;;
60588;SDS011;46421;48.610;9.334;2023-04-06T11:51:23;10.77;;;5.38;;
60588;SDS011;46421;48.610;9.334;2023-04-06T11:53:51;8.88;;;4.68;;
60588;SDS011;46421;48.610;9.334;2023-04-06T11:56:24;8.63;;;4.55;;
60588;SDS011;46421;48.610;9.334;2023-04-06T12:01:15;8.30;;;4.78;;
60588;SDS011;46421;48.610;9.334;2023-04-06T12:03:40;7.55;;;4.50;;
60588;SDS011;46421;48.610;9.334;2023-04-06T12:06:06;9.20;;;4.90;;
60588;SDS011;46421;48.610;9.334;2023-04-06T12:08:31;7.10;;;3.63;;
60588;SDS011;46421;48.610;9.334;2023-04-06T12:10:57;6.90;;;3.80;;
60588;SDS011;46421;48.610;9.334;2023-04-06T12:13:22;6.72;;;3.60;;
60588;SDS011;46421;48.610;9.334;2023-04-06T12:15:48;6.60;;;3.50;;
60588;SDS011;46421;48.610;9.334;2023-04-06T12:18:14;7.10;;;3.67;;
60588;SDS011;46421;48.610;9.334;2023-04-06T12:20:40;7.22;;;3.45;;
60588;SDS011;46421;48.610;9.334;2023-04-06T12:23:05;5.70;;;3.15;;
60588;SDS011;46421;48.610;9.334;2023-04-06T12:25:31;8.07;;;4.00;;
60588;SDS011;46421;48.610;9.334;2023-04-06T12:27:56;6.18;;;3.13;;
60588;SDS011;46421;48.610;9.334;2023-04-06T12:30:21;6.03;;;3.33;;
60588;SDS011;46421;48.610;9.334;2023-04-06T12:32:47;6.82;;;3.33;;
60588;SDS011;46421;48.610;9.334;2023-04-06T12:35:12;7.45;;;3.65;;
60588;SDS011;46421;48.610;9.334;2023-04-06T12:37:40;6.22;;;3.25;;
60588;SDS011;46421;48.610;9.334;2023-04-06T12:40:07;6.78;;;3.33;;
60588;SDS011;46421;48.610;9.334;2023-04-06T12:42:35;6.72;;;2.65;;
60588;SDS011;46421;48.610;9.334;2023-04-06T12:45:01;6.72;;;3.20;;
60588;SDS011;46421;48.610;9.334;2023-04-06T12:47:26;6.28;;;3.30;;
60588;SDS011;46421;48.610;9.334;2023-04-06T12:49:52;6.57;;;3.60;;
60588;SDS011;46421;48.610;9.334;2023-04-06T12:52:19;8.13;;;4.05;;
60588;SDS011;46421;48.610;9.334;2023-04-06T12:54:45;6.88;;;3.40;;
60588;SDS011;46421;48.610;9.334;2023-04-06T12:57:10;5.13;;;3.17;;
60588;SDS011;46421;48.610;9.334;2023-04-06T12:59:35;7.13;;;3.20;;
60588;SDS011;46421;48.610;9.334;2023-04-06T13:04:28;6.70;;;3.25;;
60588;SDS011;46421;48.610;9.334;2023-04-06T13:06:54;6.40;;;2.70;;
60588;SDS011;46421;48.610;9.334;2023-04-06T13:09:19;6.13;;;3.35;;
60588;SDS011;46421;48.610;9.334;2023-04-06T13:11:45;5.18;;;2.63;;
60588;SDS011;46421;48.610;9.334;2023-04-06T13:14:10;5.70;;;2.90;;
60588;SDS011;46421;48.610;9.334;2023-04-06T13:16:36;5.38;;;2.45;;
60588;SDS011;46421;48.610;9.334;2023-04-06T13:19:02;7.15;;;2.67;;
60588;SDS011;46421;48.610;9.334;2023-04-06T13:21:27;4.63;;;2.30;;
60588;SDS011;46421;48.610;9.334;2023-04-06T13:23:53;5.85;;;2.85;;
60588;SDS011;46421;48.610;9.334;2023-04-06T13:26:18;6.45;;;2.80;;
60588;SDS011;46421;48.610;9.334;2023-04-06T13:28:43;5.47;;;2.58;;
60588;SDS011;46421;48.610;9.334;2023-04-06T13:31:09;6.60;;;2.75;;
60588;SDS011;46421;48.610;9.334;2023-04-06T13:33:35;5.32;;;2.88;;
60588;SDS011;46421;48.610;9.334;2023-04-06T13:36:00;4.78;;;2.15;;
60588;SDS011;46421;48.610;9.334;2023-04-06T13:38:26;4.53;;;2.05;;
60588;SDS011;46421;48.610;9.334;2023-04-06T13:40:51;5.95;;;2.63;;
60588;SDS011;46421;48.610;9.334;2023-04-06T13:43:17;5.22;;;2.40;;
60588;SDS011;46421;48.610;9.334;2023-04-06T13:45:52;4.25;;;2.03;;
60588;SDS011;46421;48.610;9.334;2023-04-06T13:48:20;6.35;;;2.53;;
60588;SDS011;46421;48.610;9.334;2023-04-06T13:50:45;5.05;;;2.30;;
60588;SDS011;46421;48.610;9.334;2023-04-06T13:53:11;5.80;;;2.20;;
60588;SDS011;46421;48.610;9.334;2023-04-06T13:55:36;5.40;;;2.17;;
60588;SDS011;46421;48.610;9.334;2023-04-06T13:58:02;5.55;;;1.98;;
60588;SDS011;46421;48.610;9.334;2023-04-06T14:00:27;4.80;;;1.90;;
60588;SDS011;46421;48.610;9.334;2023-04-06T14:02:55;3.60;;;1.73;;
60588;SDS011;46421;48.610;9.334;2023-04-06T14:05:21;5.28;;;2.13;;
60588;SDS011;46421;48.610;9.334;2023-04-06T14:07:48;5.55;;;2.22;;
60588;SDS011;46421;48.610;9.334;2023-04-06T14:10:13;5.95;;;2.30;;
60588;SDS011;46421;48.610;9.334;2023-04-06T14:12:40;4.18;;;2.00;;
60588;SDS011;46421;48.610;9.334;2023-04-06T14:15:07;4.93;;;2.28;;
60588;SDS011;46421;48.610;9.334;2023-04-06T14:17:33;4.18;;;1.80;;
60588;SDS011;46421;48.610;9.334;2023-04-06T14:19:59;4.28;;;2.00;;
60588;SDS011;46421;48.610;9.334;2023-04-06T14:22:24;5.13;;;1.70;;
60588;SDS011;46421;48.610;9.334;2023-04-06T14:24:50;5.83;;;1.90;;
60588;SDS011;46421;48.610;9.334;2023-04-06T14:27:15;4.53;;;1.55;;
60588;SDS011;46421;48.610;9.334;2023-04-06T14:29:41;5.17;;;1.80;;
60588;SDS011;46421;48.610;9.334;2023-04-06T14:32:06;4.85;;;1.77;;
60588;SDS011;46421;48.610;9.334;2023-04-06T14:34:31;3.77;;;1.67;;
60588;SDS011;46421;48.610;9.334;2023-04-06T14:36:57;4.23;;;1.50;;
60588;SDS011;46421;48.610;9.334;2023-04-06T14:39:22;4.07;;;1.70;;
60588;SDS011;46421;48.610;9.334;2023-04-06T14:41:47;3.60;;;1.73;;
60588;SDS011;46421;48.610;9.334;2023-04-06T14:44:14;4.15;;;1.67;;
60588;SDS011;46421;48.610;9.334;2023-04-06T14:46:40;5.30;;;2.30;;
60588;SDS011;46421;48.610;9.334;2023-04-06T14:49:05;5.55;;;2.05;;
60588;SDS011;46421;48.610;9.334;2023-04-06T14:51:31;6.00;;;2.10;;
60588;SDS011;46421;48.610;9.334;2023-04-06T14:54:00;5.85;;;2.33;;
60588;SDS011;46421;48.610;9.334;2023-04-06T14:56:27;4.88;;;1.98;;